createdAt,value
2023-01-27T00:01:05.014Z,21.63
2023-01-27T00:03:31.837Z,21.33
2023-01-27T00:06:01.417Z,21.80
2023-01-27T00:08:29.709Z,22.73
2023-01-27T00:11:13.790Z,22.73
2023-01-27T00:13:40.549Z,20.43
2023-01-27T00:16:07.539Z,21.92
2023-01-27T00:18:34.206Z,22.47
2023-01-27T00:21:14.787Z,17.93
2023-01-27T00:23:59.715Z,22.57
2023-01-27T00:26:26.425Z,23.53
2023-01-27T00:28:53.190Z,18.50
2023-01-27T00:31:38.970Z,20.67
2023-01-27T00:34:09.594Z,20.30
2023-01-27T00:36:41.574Z,21.00
2023-01-27T00:39:10.041Z,23.77
2023-01-27T00:41:37.226Z,19.17
2023-01-27T00:44:08.848Z,18.03
2023-01-27T00:46:35.662Z,24.63
2023-01-27T00:49:06.048Z,19.70
2023-01-27T00:51:32.743Z,23.73
2023-01-27T00:53:59.523Z,19.47
2023-01-27T00:56:31.342Z,20.17
2023-01-27T00:58:58.197Z,18.17
2023-01-27T01:01:25.048Z,21.60
2023-01-27T01:03:51.818Z,21.07
2023-01-27T01:06:20.443Z,19.10
2023-01-27T01:08:47.309Z,18.57
2023-01-27T01:11:17.096Z,24.00
2023-01-27T01:13:45.408Z,24.43
2023-01-27T01:16:14.270Z,21.10
2023-01-27T01:18:41.979Z,21.93
2023-01-27T01:21:08.887Z,18.73
2023-01-27T01:23:39.247Z,18.57
2023-01-27T01:26:06.079Z,21.03
2023-01-27T01:28:33.632Z,20.30
2023-01-27T01:31:08.385Z,18.23
2023-01-27T01:33:36.495Z,19.03
2023-01-27T01:38:39.091Z,16.23
2023-01-27T01:41:07.254Z,22.10
2023-01-27T01:43:35.318Z,18.80
2023-01-27T01:46:03.088Z,20.90
2023-01-27T01:48:42.700Z,19.20
2023-01-27T01:51:13.830Z,17.83
2023-01-27T01:53:51.081Z,18.50
2023-01-27T01:56:23.539Z,17.33
2023-01-27T01:58:51.306Z,16.43
2023-01-27T02:01:19.409Z,19.40
2023-01-27T02:03:51.414Z,17.10
2023-01-27T02:06:18.450Z,20.93
2023-01-27T02:08:48.562Z,19.50
2023-01-27T02:11:17.833Z,21.65
2023-01-27T02:13:45.328Z,19.67
2023-01-27T02:16:14.175Z,18.87
2023-01-27T02:18:41.969Z,19.30
2023-01-27T02:21:09.203Z,19.77
2023-01-27T02:23:38.782Z,19.47
2023-01-27T02:26:12.878Z,20.03
2023-01-27T02:28:39.565Z,19.27
2023-01-27T02:31:06.420Z,23.05
2023-01-27T02:33:33.682Z,19.40
2023-01-27T02:36:09.046Z,21.80
2023-01-27T02:38:48.423Z,19.90
2023-01-27T02:41:29.998Z,28.43
2023-01-27T02:43:57.115Z,18.57
2023-01-27T02:46:24.274Z,21.93
2023-01-27T02:48:51.031Z,22.57
2023-01-27T02:51:18.157Z,17.80
2023-01-27T02:53:46.265Z,21.97
2023-01-27T02:56:14.860Z,22.20
2023-01-27T02:58:41.673Z,21.90
2023-01-27T03:01:09.919Z,22.67
2023-01-27T03:03:36.670Z,21.90
2023-01-27T03:06:03.896Z,23.97
2023-01-27T03:08:30.536Z,21.60
2023-01-27T03:10:57.349Z,21.83
2023-01-27T03:13:25.224Z,22.40
2023-01-27T03:16:13.388Z,21.20
2023-01-27T03:18:38.827Z,20.38
2023-01-27T03:21:07.350Z,23.23
2023-01-27T03:23:34.486Z,24.08
2023-01-27T03:26:03.034Z,22.03
2023-01-27T03:28:29.935Z,21.07
2023-01-27T03:31:01.712Z,18.20
2023-01-27T03:33:28.656Z,20.63
2023-01-27T03:36:13.894Z,20.83
2023-01-27T03:38:59.339Z,21.10
2023-01-27T03:41:44.540Z,15.23
2023-01-27T03:46:38.160Z,16.53
2023-01-27T03:49:04.853Z,15.00
2023-01-27T03:51:31.509Z,20.17
2023-01-27T03:54:02.976Z,21.97
2023-01-27T03:56:29.945Z,18.98
2023-01-27T03:58:57.890Z,19.52
2023-01-27T04:01:25.256Z,20.80
2023-01-27T04:04:10.600Z,20.13
2023-01-27T04:06:56.606Z,20.10
2023-01-27T04:09:35.731Z,17.37
2023-01-27T04:12:06.891Z,16.63
2023-01-27T04:14:38.040Z,19.47
2023-01-27T04:17:13.866Z,19.90
2023-01-27T04:19:41.139Z,15.33
2023-01-27T04:22:09.728Z,15.47
2023-01-27T04:24:36.397Z,18.93
2023-01-27T04:27:10.040Z,16.13
2023-01-27T04:29:41.137Z,17.70
2023-01-27T04:32:10.288Z,15.67
2023-01-27T04:34:38.141Z,16.60
2023-01-27T04:37:07.082Z,15.23
2023-01-27T04:39:34.528Z,11.30
2023-01-27T04:42:01.578Z,14.70
2023-01-27T04:44:28.507Z,14.67
2023-01-27T04:46:55.266Z,16.27
2023-01-27T04:49:22.645Z,18.10
2023-01-27T04:51:50.142Z,13.37
2023-01-27T04:54:17.239Z,11.57
2023-01-27T04:56:59.889Z,12.40
2023-01-27T04:59:27.118Z,13.60
2023-01-27T05:01:54.412Z,11.00
2023-01-27T05:04:21.642Z,11.13
2023-01-27T05:06:48.376Z,13.00
2023-01-27T05:09:14.998Z,12.43
2023-01-27T05:11:41.942Z,12.13
2023-01-27T05:16:39.723Z,13.40
2023-01-27T05:19:07.411Z,12.07
2023-01-27T05:21:34.119Z,11.30
2023-01-27T05:24:02.338Z,12.37
2023-01-27T05:26:29.135Z,14.43
2023-01-27T05:28:58.465Z,15.23
2023-01-27T05:31:32.036Z,13.33
2023-01-27T05:34:01.619Z,13.25
2023-01-27T05:36:29.543Z,13.23
2023-01-27T05:38:58.688Z,11.73
2023-01-27T05:41:25.681Z,15.13
2023-01-27T05:43:56.679Z,12.37
2023-01-27T05:46:26.732Z,13.43
2023-01-27T05:48:56.033Z,12.80
2023-01-27T05:51:24.730Z,12.93
2023-01-27T05:53:52.588Z,10.33
2023-01-27T05:56:22.105Z,13.93
2023-01-27T05:58:53.343Z,16.43
2023-01-27T06:01:25.998Z,11.80
2023-01-27T06:03:53.017Z,11.50
2023-01-27T06:06:22.496Z,12.23
2023-01-27T06:08:50.350Z,12.93
2023-01-27T06:11:20.125Z,21.50
2023-01-27T06:13:47.969Z,13.93
2023-01-27T06:16:20.391Z,12.67
2023-01-27T06:18:48.430Z,12.50
2023-01-27T06:21:16.903Z,13.38
2023-01-27T06:23:47.315Z,11.90
2023-01-27T06:26:17.204Z,14.03
2023-01-27T06:28:44.259Z,14.13
2023-01-27T06:31:14.098Z,13.40
2023-01-27T06:33:41.113Z,13.73
2023-01-27T06:36:14.021Z,14.52
2023-01-27T06:38:41.135Z,12.80
2023-01-27T06:41:08.411Z,14.40
2023-01-27T06:43:41.134Z,15.27
2023-01-27T06:46:10.992Z,14.70
2023-01-27T06:48:38.422Z,16.40
2023-01-27T06:51:05.322Z,18.77
2023-01-27T06:53:32.972Z,17.60
2023-01-27T06:56:01.385Z,17.90
2023-01-27T06:58:28.916Z,16.47
2023-01-27T07:00:56.077Z,13.90
2023-01-27T07:03:23.073Z,16.00
2023-01-27T07:05:50.142Z,14.00
2023-01-27T07:08:17.457Z,14.60
2023-01-27T07:10:44.370Z,16.37
2023-01-27T07:13:13.927Z,18.17
2023-01-27T07:15:41.249Z,17.83
2023-01-27T07:18:08.158Z,15.63
2023-01-27T07:20:34.974Z,17.07
2023-01-27T07:23:05.280Z,14.53
2023-01-27T07:25:34.690Z,14.57
2023-01-27T07:28:02.671Z,13.97
2023-01-27T07:30:29.557Z,17.33
2023-01-27T07:32:56.393Z,15.13
2023-01-27T07:35:23.599Z,18.80
2023-01-27T07:37:50.476Z,16.00
2023-01-27T07:40:18.416Z,15.43
2023-01-27T07:42:45.077Z,22.73
2023-01-27T07:47:38.573Z,20.83
2023-01-27T07:50:05.889Z,15.87
2023-01-27T07:52:32.533Z,15.52
2023-01-27T07:54:59.268Z,18.50
2023-01-27T07:57:25.935Z,19.80
2023-01-27T07:59:56.860Z,17.30
2023-01-27T08:02:24.391Z,17.35
2023-01-27T08:04:53.548Z,17.60
2023-01-27T08:07:21.542Z,16.20
2023-01-27T08:09:48.637Z,19.42
2023-01-27T08:12:15.388Z,16.60
2023-01-27T08:14:42.096Z,16.47
2023-01-27T08:17:08.940Z,21.48
2023-01-27T08:19:35.724Z,17.17
2023-01-27T08:22:02.404Z,18.80
2023-01-27T08:24:29.193Z,16.00
2023-01-27T08:26:56.431Z,19.38
2023-01-27T08:29:23.271Z,15.33
2023-01-27T08:31:49.954Z,16.70
2023-01-27T08:34:17.242Z,19.95
2023-01-27T08:36:43.896Z,17.33
2023-01-27T08:39:11.237Z,16.85
2023-01-27T08:41:38.072Z,13.87
2023-01-27T08:44:04.893Z,17.73
2023-01-27T08:46:31.583Z,17.08
2023-01-27T08:48:58.269Z,17.42
2023-01-27T08:51:24.903Z,16.77
2023-01-27T08:53:51.675Z,15.25
2023-01-27T08:56:18.555Z,14.35
2023-01-27T08:58:47.623Z,20.90
2023-01-27T09:01:16.254Z,18.20
2023-01-27T09:03:43.471Z,17.63
2023-01-27T09:08:39.629Z,16.02
2023-01-27T09:11:13.999Z,14.25
2023-01-27T09:13:41.005Z,13.77
2023-01-27T09:16:08.105Z,17.65
2023-01-27T09:18:38.439Z,15.27
2023-01-27T09:21:09.202Z,13.80
2023-01-27T09:23:35.865Z,17.92
2023-01-27T09:26:02.528Z,11.40
2023-01-27T09:28:29.304Z,14.80
2023-01-27T09:31:00.289Z,13.43
2023-01-27T09:33:27.699Z,13.75
2023-01-27T09:36:05.558Z,14.38
2023-01-27T09:38:36.392Z,13.90
2023-01-27T09:41:13.084Z,12.73
2023-01-27T09:43:57.910Z,13.02
2023-01-27T09:46:39.538Z,14.75
2023-01-27T09:49:14.076Z,14.45
2023-01-27T09:51:52.032Z,12.95
2023-01-27T09:54:43.660Z,14.20
2023-01-27T09:57:13.097Z,13.60
2023-01-27T09:59:48.297Z,13.18
2023-01-27T10:02:15.288Z,14.02
2023-01-27T10:04:54.149Z,10.77
2023-01-27T10:07:48.894Z,9.68
2023-01-27T10:10:42.230Z,9.85
2023-01-27T10:13:14.082Z,11.05
2023-01-27T10:16:14.050Z,11.27
2023-01-27T10:19:14.178Z,8.23
2023-01-27T10:21:48.983Z,9.43
2023-01-27T10:24:32.855Z,15.68
2023-01-27T10:27:14.065Z,11.60
2023-01-27T10:30:05.836Z,11.60
2023-01-27T10:33:04.293Z,8.70
2023-01-27T10:35:45.934Z,10.30
2023-01-27T10:38:14.130Z,10.30
2023-01-27T10:40:50.489Z,10.10
2023-01-27T10:43:36.717Z,8.98
2023-01-27T10:46:14.033Z,11.13
2023-01-27T10:49:10.338Z,12.13
2023-01-27T10:51:43.709Z,10.27
2023-01-27T10:54:14.159Z,8.73
2023-01-27T10:56:49.781Z,9.52
2023-01-27T10:59:33.238Z,11.68
2023-01-27T11:02:13.171Z,9.48
2023-01-27T11:04:44.228Z,9.27
2023-01-27T11:07:13.110Z,10.02
2023-01-27T11:09:49.215Z,9.63
2023-01-27T11:12:16.436Z,13.43
2023-01-27T11:14:51.842Z,10.52
2023-01-27T11:17:59.852Z,10.82
2023-01-27T11:20:35.385Z,10.57
2023-01-27T11:25:52.987Z,10.05
2023-01-27T11:28:25.440Z,9.02
2023-01-27T11:33:58.604Z,6.60
2023-01-27T11:36:26.581Z,6.60
2023-01-27T11:39:01.763Z,7.97
2023-01-27T11:41:28.614Z,7.55
2023-01-27T11:43:55.331Z,6.53
2023-01-27T11:46:24.425Z,6.45
2023-01-27T11:48:57.796Z,9.27
2023-01-27T11:51:32.043Z,8.98
2023-01-27T11:54:14.234Z,9.25
2023-01-27T11:56:44.276Z,11.82
2023-01-27T11:59:14.133Z,7.40
2023-01-27T12:01:50.980Z,10.52
2023-01-27T12:04:39.260Z,8.48
2023-01-27T12:07:14.102Z,7.05
2023-01-27T12:09:42.197Z,10.32
2023-01-27T12:12:15.111Z,13.25
2023-01-27T12:14:54.214Z,6.55
2023-01-27T12:17:44.022Z,6.50
2023-01-27T12:20:13.540Z,8.30
2023-01-27T12:22:44.592Z,5.75
2023-01-27T12:25:14.193Z,6.93
2023-01-27T12:27:48.088Z,7.85
2023-01-27T12:30:40.841Z,7.43
2023-01-27T12:33:14.091Z,7.32
2023-01-27T12:35:40.880Z,8.73
2023-01-27T12:38:14.080Z,7.60
2023-01-27T12:40:45.030Z,7.47
2023-01-27T12:43:14.130Z,6.03
2023-01-27T12:45:43.502Z,5.55
2023-01-27T12:50:53.213Z,5.90
2023-01-27T12:53:30.494Z,6.57
2023-01-27T12:56:14.198Z,5.80
2023-01-27T12:58:55.554Z,4.15
2023-01-27T13:01:34.910Z,7.75
2023-01-27T13:04:07.214Z,4.25
2023-01-27T13:06:42.064Z,3.83
2023-01-27T13:09:13.176Z,4.10
2023-01-27T13:11:41.099Z,8.10
2023-01-27T13:14:14.254Z,3.53
2023-01-27T13:16:41.050Z,3.55
2023-01-27T13:19:13.186Z,4.65
2023-01-27T13:21:39.933Z,4.05
2023-01-27T13:24:14.207Z,4.57
2023-01-27T13:26:41.680Z,3.38
2023-01-27T13:29:14.107Z,3.55
2023-01-27T13:31:57.114Z,4.53
2023-01-27T13:34:34.211Z,3.95
2023-01-27T13:37:14.153Z,5.82
2023-01-27T13:39:43.838Z,6.97
2023-01-27T13:42:15.183Z,5.55
2023-01-27T13:44:57.312Z,3.95
2023-01-27T13:47:28.327Z,6.35
2023-01-27T13:50:02.622Z,5.82
2023-01-27T13:52:29.295Z,4.20
2023-01-27T13:54:56.009Z,4.75
2023-01-27T13:57:37.960Z,5.88
2023-01-27T14:00:14.437Z,6.53
2023-01-27T14:03:06.687Z,3.67
2023-01-27T14:06:00.932Z,4.97
2023-01-27T14:08:42.024Z,5.25
2023-01-27T14:11:13.242Z,6.60
2023-01-27T14:13:42.731Z,5.90
2023-01-27T14:16:14.143Z,5.25
2023-01-27T14:18:44.930Z,5.32
2023-01-27T14:21:13.211Z,4.72
2023-01-27T14:24:10.920Z,4.40
2023-01-27T14:29:54.277Z,5.93
2023-01-27T14:32:41.939Z,5.38
2023-01-27T14:35:15.243Z,6.43
2023-01-27T14:38:14.537Z,9.65
2023-01-27T14:41:06.299Z,4.20
2023-01-27T14:43:58.285Z,6.97
2023-01-27T14:46:44.165Z,6.57
2023-01-27T14:49:14.633Z,6.07
2023-01-27T14:51:52.735Z,5.78
2023-01-27T14:54:31.546Z,9.85
2023-01-27T14:57:14.226Z,6.80
2023-01-27T15:00:15.197Z,6.07
2023-01-27T15:02:51.896Z,5.85
2023-01-27T15:05:23.923Z,6.55
2023-01-27T15:08:14.219Z,7.00
2023-01-27T15:11:14.230Z,5.40
2023-01-27T15:14:14.951Z,7.35
2023-01-27T15:17:14.180Z,7.25
2023-01-27T15:19:50.037Z,6.68
2023-01-27T15:22:31.516Z,7.88
2023-01-27T15:25:18.336Z,9.80
2023-01-27T15:27:47.902Z,6.53
2023-01-27T15:31:01.892Z,6.60
2023-01-27T15:33:50.477Z,9.00
2023-01-27T15:36:34.934Z,5.88
2023-01-27T15:41:53.831Z,6.28
2023-01-27T15:44:39.009Z,9.40
2023-01-27T15:47:11.621Z,10.60
2023-01-27T15:49:44.520Z,12.00
2023-01-27T15:52:14.227Z,14.82
2023-01-27T15:54:42.810Z,15.35
2023-01-27T15:57:14.310Z,9.82
2023-01-27T15:59:58.346Z,10.63
2023-01-27T16:02:29.874Z,8.40
2023-01-27T16:05:14.653Z,8.73
2023-01-27T16:07:42.164Z,8.77
2023-01-27T16:10:14.296Z,6.50
2023-01-27T16:12:47.560Z,10.70
2023-01-27T16:15:23.339Z,6.78
2023-01-27T16:18:09.409Z,5.85
2023-01-27T16:20:42.181Z,9.07
2023-01-27T16:23:14.652Z,6.32
2023-01-27T16:25:45.817Z,8.02
2023-01-27T16:28:14.538Z,8.95
2023-01-27T16:31:00.683Z,5.55
2023-01-27T16:33:48.046Z,7.45
2023-01-27T16:36:20.731Z,6.30
2023-01-27T16:38:48.882Z,6.22
2023-01-27T16:41:22.089Z,8.75
2023-01-27T16:43:53.554Z,6.07
2023-01-27T16:46:43.157Z,8.65
2023-01-27T16:49:14.292Z,10.30
2023-01-27T16:51:43.118Z,7.07
2023-01-27T16:54:17.637Z,7.97
2023-01-27T16:56:50.761Z,6.88
2023-01-27T16:59:30.897Z,6.97
2023-01-27T17:02:03.530Z,8.57
2023-01-27T17:04:32.142Z,5.03
2023-01-27T17:07:16.361Z,6.97
2023-01-27T17:09:51.409Z,6.00
2023-01-27T17:12:27.378Z,10.55
2023-01-27T17:14:54.307Z,4.43
2023-01-27T17:17:23.916Z,6.40
2023-01-27T17:20:04.727Z,6.93
2023-01-27T17:22:39.366Z,12.20
2023-01-27T17:25:15.015Z,6.53
2023-01-27T17:27:45.495Z,5.28
2023-01-27T17:30:14.337Z,7.53
2023-01-27T17:32:48.633Z,10.38
2023-01-27T17:35:25.146Z,7.00
2023-01-27T17:37:52.997Z,5.85
2023-01-27T17:40:24.553Z,6.70
2023-01-27T17:42:51.437Z,7.13
2023-01-27T17:45:32.212Z,7.18
2023-01-27T17:48:00.439Z,5.43
2023-01-27T17:50:40.464Z,7.80
2023-01-27T17:55:40.037Z,6.25
2023-01-27T17:58:14.277Z,8.13
2023-01-27T18:00:44.169Z,9.70
2023-01-27T18:03:14.583Z,11.13
2023-01-27T18:05:44.738Z,7.78
2023-01-27T18:08:11.903Z,6.95
2023-01-27T18:10:46.540Z,4.60
2023-01-27T18:13:15.630Z,6.68
2023-01-27T18:15:58.511Z,8.98
2023-01-27T18:18:30.889Z,6.90
2023-01-27T18:21:01.246Z,5.90
2023-01-27T18:23:53.271Z,7.45
2023-01-27T18:26:26.285Z,7.15
2023-01-27T18:28:59.191Z,7.38
2023-01-27T18:31:30.607Z,6.15
2023-01-27T18:34:06.789Z,6.68
2023-01-27T18:36:55.630Z,6.18
2023-01-27T18:39:42.633Z,6.85
2023-01-27T18:42:15.203Z,6.47
2023-01-27T18:44:42.439Z,5.65
2023-01-27T18:47:15.412Z,6.63
2023-01-27T18:49:42.278Z,7.30
2023-01-27T18:52:14.352Z,8.32
2023-01-27T18:54:41.511Z,7.22
2023-01-27T18:57:11.283Z,6.75
2023-01-27T18:59:38.068Z,9.10
2023-01-27T19:04:39.328Z,6.03
2023-01-27T19:09:38.716Z,6.72
2023-01-27T19:12:06.547Z,8.68
2023-01-27T19:14:35.235Z,9.38
2023-01-27T19:17:02.039Z,9.15
2023-01-27T19:19:29.160Z,5.93
2023-01-27T19:21:55.943Z,8.98
2023-01-27T19:24:22.973Z,6.22
2023-01-27T19:26:49.932Z,8.45
2023-01-27T19:29:16.603Z,7.93
2023-01-27T19:31:43.455Z,8.57
2023-01-27T19:34:11.407Z,7.03
2023-01-27T19:36:43.566Z,7.63
2023-01-27T19:39:13.380Z,8.43
2023-01-27T19:41:41.079Z,7.80
2023-01-27T19:44:11.200Z,6.75
2023-01-27T19:46:39.956Z,8.25
2023-01-27T19:49:14.324Z,7.30
2023-01-27T19:51:41.011Z,9.23
2023-01-27T19:54:10.065Z,10.70
2023-01-27T19:56:40.442Z,7.10
2023-01-27T19:59:07.120Z,7.75
2023-01-27T20:01:33.873Z,6.68
2023-01-27T20:04:00.650Z,8.63
2023-01-27T20:06:29.614Z,6.95
2023-01-27T20:08:59.729Z,6.63
2023-01-27T20:11:36.608Z,9.45
2023-01-27T20:14:07.763Z,6.10
2023-01-27T20:16:34.519Z,6.38
2023-01-27T20:19:04.002Z,7.50
2023-01-27T20:21:36.547Z,8.85
2023-01-27T20:24:03.577Z,7.13
2023-01-27T20:26:33.565Z,6.93
2023-01-27T20:29:00.232Z,6.13
2023-01-27T20:31:27.349Z,6.72
2023-01-27T20:33:54.312Z,6.93
2023-01-27T20:36:23.579Z,7.05
2023-01-27T20:38:51.691Z,8.48
2023-01-27T20:41:23.924Z,10.02
2023-01-27T20:44:00.490Z,6.65
2023-01-27T20:46:27.907Z,7.18
2023-01-27T20:49:02.011Z,9.93
2023-01-27T20:51:28.937Z,7.05
2023-01-27T20:53:57.982Z,6.50
2023-01-27T20:56:24.754Z,6.13
2023-01-27T20:58:52.550Z,7.25
2023-01-27T21:01:22.440Z,6.75
2023-01-27T21:03:52.156Z,10.77
2023-01-27T21:06:22.635Z,8.40
2023-01-27T21:08:49.679Z,7.10
2023-01-27T21:11:18.821Z,5.43
2023-01-27T21:13:46.171Z,9.60
2023-01-27T21:16:14.455Z,7.38
2023-01-27T21:18:42.243Z,7.93
2023-01-27T21:21:13.829Z,10.50
2023-01-27T21:23:40.602Z,6.57
2023-01-27T21:26:11.815Z,11.25
2023-01-27T21:28:38.882Z,7.43
2023-01-27T21:31:10.897Z,11.30
2023-01-27T21:33:39.708Z,8.25
2023-01-27T21:36:10.501Z,7.13
2023-01-27T21:38:38.523Z,8.35
2023-01-27T21:41:14.357Z,7.88
2023-01-27T21:43:59.636Z,8.32
2023-01-27T21:46:26.329Z,7.18
2023-01-27T21:48:53.044Z,9.35
2023-01-27T21:51:19.712Z,9.00
2023-01-27T21:53:47.039Z,10.43
2023-01-27T21:56:14.692Z,8.05
2023-01-27T21:58:41.683Z,6.80
2023-01-27T22:01:11.071Z,9.18
2023-01-27T22:03:38.422Z,6.75
2023-01-27T22:06:11.339Z,6.53
2023-01-27T22:08:38.208Z,6.05
2023-01-27T22:11:12.448Z,6.68
2023-01-27T22:13:38.856Z,6.55
2023-01-27T22:16:06.291Z,4.63
2023-01-27T22:18:32.986Z,6.13
2023-01-27T22:21:02.884Z,8.27
2023-01-27T22:23:30.278Z,6.03
2023-01-27T22:25:57.036Z,5.03
2023-01-27T22:28:24.560Z,5.47
2023-01-27T22:30:51.379Z,3.58
2023-01-27T22:33:18.742Z,3.67
2023-01-27T22:35:45.466Z,3.65
2023-01-27T22:38:12.099Z,4.55
2023-01-27T22:40:38.825Z,5.35
2023-01-27T22:43:09.749Z,5.20
2023-01-27T22:45:40.449Z,4.18
2023-01-27T22:48:09.082Z,5.03
2023-01-27T22:50:36.710Z,3.97
2023-01-27T22:53:05.517Z,5.32
2023-01-27T22:55:32.700Z,3.78
2023-01-27T22:57:59.496Z,4.57
2023-01-27T23:00:26.218Z,4.28
2023-01-27T23:02:52.978Z,5.32
2023-01-27T23:05:22.934Z,6.25
2023-01-27T23:07:49.863Z,3.53
2023-01-27T23:10:17.053Z,4.68
2023-01-27T23:12:43.749Z,4.05
2023-01-27T23:15:10.816Z,3.63
2023-01-27T23:17:37.609Z,3.85
2023-01-27T23:20:04.809Z,7.47
2023-01-27T23:22:33.495Z,5.22
2023-01-27T23:25:00.164Z,4.07
2023-01-27T23:27:28.942Z,3.22
2023-01-27T23:29:55.631Z,5.45
2023-01-27T23:32:22.576Z,5.50
2023-01-27T23:34:50.489Z,4.38
2023-01-27T23:37:17.624Z,3.35
2023-01-27T23:39:48.786Z,4.18
2023-01-27T23:42:16.923Z,4.28
2023-01-27T23:44:43.785Z,4.15
2023-01-27T23:49:38.889Z,5.70
2023-01-27T23:52:05.810Z,4.18
2023-01-27T23:54:33.090Z,4.72
2023-01-27T23:57:00.473Z,5.70
2023-01-27T23:59:27.450Z,5.60
